LIME/BGY METAR and TAF weather

Enter ICAO airport designator
Station Type Date Time Source
LIME METAR 2019/06/26 20:20 UTC NOAA

LIME 262020Z 02004KT 8000 NSC 28/22 Q1023 NOSIG


Station Type Date Time Source
LIME Decoded METAR 2019/06/26 20:20 UTC NOAA

Bergamo / Orio Al Serio, Italy (LIME) 45-40N 009-42E 237M
Jun 26, 2019 - 04:20 PM EDT / 2019.06.26 2020 UTC
Wind: from the NNE (020 degrees) at 5 MPH (4 KT):0
Visibility: 4 mile(s):0
Temperature: 82 F (28 C)
Dew Point: 71 F (22 C)
Relative Humidity: 69%
Pressure (altimeter): 30.21 in. Hg (1023 hPa)
ob: LIME 262020Z 02004KT 8000 NSC 28/22 Q1023 NOSIG
cycle: 20

Station Type Date Time Source
LIME TAF 2019/06/26 18:21 UTC NOAA

TAF LIME 261700Z 2618/2718 VRB05KT CAVOK

Example: see airport list